MET2387 - Kansas City to Rochester

Bombardier Dash-8-Q200
838AH
1 hr 15 mins
294 nm
Scheduled - Daily

Bid/PiRep Status

Bid was submitted on November 22nd, 2016 16:26 UTC.
PiRep # 74153: Approved by Dave Nichols on November 28th, 2016 5:07 UTC

Departure

Departing from
Kansas City (MCI)
Departure gate
Scheduled Departure
GMT 1900
Local 1400
METAR KMCI 231953Z 32020G30KT 10SM FEW060 BKN120 BKN200 18/03 A2997 RMK AO2 PK WND 32030/1953 SLP145 T01830033
TAF KMCI 231728Z 2318/2418 35015G25KT P6SM BKN120 FM240000 31010G18KT P6SM SCT120 FM240400 30012KT P6SM SKC

Arrival

Arriving at
Rochester (RST)
Arrival gate
A4
Scheduled Arrival
GMT 2015
Local 1515
METAR KRST 231954Z 29023G31KT 10SM SCT047 14/04 A2975 RMK AO2 PK WND 28031/1954 SLP077 T01390039
TAF KRST 232015Z 2320/2418 30019G30KT P6SM SCT050 FM232300 31019G31KT P6SM BKN050 FM240100 32019G35KT P6SM OVC030 FM241400 33023G39KT P6SM OVC025 FM241700 33024G39KT P6SM BKN050

Route Map

Planning Resources

ROYAL3 TONCE DSM J25 MCW YESUR [D147M] EGACE [D110M] D095M
ROYAL3 TONCE DSM J25 MCW RST
ROYAL 5 STJ DSM J25 MCW RST KRST
MCI STJ DSM J25 MCW RST
BACNN DSM JORDY MCW
Route:
OFP Layout:
Units:
Detailed Navlog:
ETOPS Planning:
Plan Stepclimbs:
Runway Analysis:
Include NOTAMS:
FIR NOTAMS:
Flight Maps:

Popularity

Hub Current Bids PiReps this month Total PiReps
KLAX 0 0 0
KBOS 0 0 0
KDFW 0 0 0